• Join FlightAware (Why Join?)
  • Login
  • US Flag 
08:54AM EDT


 

Airport Tracker/Info


-or-


 

Live Flight TrackerFlight Track Log ✈ JBU56 ✈ 21-Nov-2013 ✈ KIAD - KBOS

Flight Track Log - Related Links

Times and Time Zones

All times are in EST time to prevent confusion due to time zone crossing. See the JBU56 flight status page for this flight to view local times or setup timezone preferences in your user account.

Time Position Orientation Groundspeed Altitude Reporting Facility
EST Latitude Longitude Course Direction KTS MPH feet Rate Location/Type
09:58AM 38.9500 -77.5000 67° East 167 192 1,300  Level Potomac TRACON
09:59AM 38.9833 -77.5500 311° West 225 259 2,900 2,040 Climbing Potomac TRACON
10:00AM 39.0500 -77.5667 349° North 285 328 5,300 3,060 Climbing Potomac TRACON
10:01AM 39.1000 -77.5000 46° Northeast 292 336 8,800 1,620 Climbing Potomac TRACON
10:02AM 39.1858 -77.0501 90° East  Level Estimated
10:03AM 39.2452 -76.9473 74° East  Level Estimated
10:03AM 39.1697 -77.3264 63° Northeast 341 392 10,000  Level Washington Center
10:04AM 39.3045 -76.8442 67° East  Level Estimated
10:04AM 39.1383 -77.1972 107° East 350 403 12,800  Level Washington Center
10:05AM 39.1044 -77.0681 109° East 363 418 15,500 2,160 Climbing Washington Center
10:06AM 39.1081 -76.9236 88° East 376 433 17,300 1,560 Climbing Washington Center
10:07AM 39.1181 -76.7689 85° East 405 466 18,700 1,680 Climbing Washington Center
10:08AM 39.1278 -76.6111 85° East 424 488 20,700 1,620 Climbing Washington Center
10:09AM 39.1375 -76.4506 85° East 442 509 22,000 1,140 Climbing Washington Center
10:10AM 39.1469 -76.2794 86° East 454 522 23,000 480 Climbing Washington Center
10:11AM 39.1686 -76.1083 81° East 475 547 23,000  Level Washington Center
10:12AM 39.1858 -75.9397 82° East 480 552 23,000  Level Washington Center
10:13AM 39.2550 -75.8006 57° Northeast 468 539 23,000 180 Level Washington Center
10:14AM 39.3467 -75.6856 44° Northeast 445 512 23,400 900 Climbing Washington Center
10:15AM 39.4364 -75.5672 46° Northeast 445 512 24,800 1,260 Climbing Washington Center
10:16AM 39.5258 -75.4489 46° Northeast 450 518 26,000 1,260 Climbing Washington Center
10:18AM 39.7003 -75.2175 46° Northeast 471 542 28,400 1,440 Climbing New York Center
10:19AM 39.7864 -75.0906 49° Northeast 472 543 30,000 1,260 Climbing New York Center
10:20AM 39.8675 -74.9764 47° Northeast 472 543 31,000 480 Climbing New York Center
10:21AM 39.9642 -74.8389 47° Northeast 472 543 31,000  Level New York Center
10:22AM 40.0539 -74.7111 47° Northeast 472 543 31,000  Level New York Center
10:23AM 40.1417 -74.5803 49° Northeast 472 543 31,000  Level New York Center
10:24AM 40.2286 -74.4683 44° Northeast 479 551 31,000  Level New York Center
10:25AM 40.3300 -74.3594 39° Northeast 474 545 31,000 -540 Level New York Center
10:26AM 40.4397 -74.2422 39° Northeast 463 533 30,000 -960 Descending New York Center
10:28AM 40.5547 -74.0011 58° Northeast 462 532 28,300 -960 Descending Boston Center
10:29AM 40.5958 -73.8397 71° East 463 533 27,300 -660 Descending Boston Center
10:30AM 40.6775 -73.7139 49° Northeast 447 514 27,000 -180 Descending Boston Center
10:31AM 40.7614 -73.5900 48° Northeast 449 517 27,000  Level Boston Center
10:32AM 40.8447 -73.4667 48° Northeast 449 517 27,000  Level Boston Center
10:33AM 40.9261 -73.3436 49° Northeast 444 511 27,000 -180 Level Boston Center
10:34AM 41.0111 -73.2192 48° Northeast 441 507 26,700 -900 Descending Boston Center
10:35AM 41.0936 -73.0958 48° Northeast 447 514 25,200 -1,500 Descending Boston Center
10:36AM 41.1731 -72.9758 49° Northeast 439 505 23,600 -1,080 Descending Boston Center
10:37AM 41.2525 -72.8239 55° Northeast 428 493 23,000 -300 Descending Boston Center
10:38AM 41.3044 -72.6775 65° Northeast 432 497 23,000  Level Boston Center
10:39AM 41.3533 -72.5322 66° East 430 495 23,000  Level Boston Center
10:40AM 41.4028 -72.3886 65° Northeast 428 493 23,000 -360 Level Boston Center
10:41AM 41.4522 -72.2425 66° East 431 496 22,300 -1,440 Descending Boston Center
10:42AM 41.5008 -72.1000 65° Northeast 426 490 20,100 -2,040 Descending Boston Center
10:43AM 41.5511 -71.9522 66° East 406 467 18,300 -2,160 Descending Boston Center
10:44AM 41.5956 -71.8189 66° East 396 456 15,700 -2,280 Descending Boston Center
10:45AM 41.6408 -71.6833 66° East 378 435 13,600 -1,980 Descending Boston Center
10:46AM 41.6794 -71.5661 66° East 355 409 11,700 -1,260 Descending Boston Center
10:47AM 41.7183 -71.4486 66° East 327 376 11,100 -300 Descending Boston Center
10:48AM 41.7675 -71.3586 54° Northeast 305 351 11,100  Level Boston Center
10:49AM 41.8211 -71.2683 51° Northeast 310 357 11,100 -720 Level Boston Center
10:50AM 41.9064 -71.2253 21° North 306 352 9,700 -1,440 Descending Boston Center
10:51AM 41.9853 -71.1894 19° North 301 346 8,200 -1,560 Descending Boston Center
10:52AM 42.0639 -71.1511 20° North 301 346 6,600 -1,440 Descending Boston Center
10:53AM 42.1333 -71.1167 20° North 242 278 5,500 -1,560 Descending KA90
10:54AM 42.2000 -71.0833 20° North 232 267 3,500 -1,560 Descending KA90
10:55AM 42.2500 -71.0500 26° Northeast 216 249 2,200 -1,140 Descending KA90
10:56AM 42.3167 -71.0333 10° North 179 206 1,100 -960 Descending KA90
10:57AM 42.3333 -71.0167 36° Northeast 134 154 400 -900 Descending KA90
10:59AM 42.3500 -71.0000 North  Level FlightAware Approximate
11:06AM 42.3630 -71.0064 North  Level Estimated